Gold, Texas
Current Conditions -  °F | °C
As of 1:15 PM on Sunday 21 Dec 2014 (Local Time) from KT82 Reporting Station
Overcast Overcast  
Wind Chill: 50°   Ceiling: 800
Heat Index: 50°   Visibility: 10mi
Dew Point: 47°   Wind: 12mph
Humidity: 87%   Direction: 210°SSW
Pressure: 29.97"   Gusts: NA
Location:  30.3069°N, 98.8978°W
Report Text: KT82 211915Z AUTO 21010KT 10SM OVC008 10/08 A2997 RMK AO2 T01020081
Loading
Personal Weather Stations






























Interactive Weather Map New forecast layout! Learn more

10-Day Weather Forecast

Advertisements
Track Severe Weather on mobile